Time;durP1;ratioP1;P1;durP2;ratioP2;P2;SDS_P1;SDS_P2;PMS_P1;PMS_P2;Temp;Humidity;BMP_temperature;BMP_pressure;BME280_temperature;BME280_humidity;BME280_pressure;Samples;Min_cycle;Max_cycle;Signal;HPM_P1;HPM_P2
2023/04/10 00:02:24;;;;;;;4.47;2.75;;;13.60;46.90;;;;;;2526620;54;20951;-71
2023/04/10 00:04:51;;;;;;;4.57;2.80;;;13.60;46.90;;;;;;2550670;54;20935;-71
2023/04/10 00:07:20;;;;;;;4.82;2.65;;;13.50;46.90;;;;;;2310997;55;21632;-73
2023/04/10 00:09:46;;;;;;;4.20;2.53;;;13.50;46.90;;;;;;2311501;55;20931;-70
2023/04/10 00:12:13;;;;;;;5.03;2.85;;;13.50;46.90;;;;;;2310544;55;20951;-70
2023/04/10 00:14:42;;;;;;;4.57;2.80;;;13.50;47.00;;;;;;2311154;55;20915;-70
2023/04/10 00:17:09;;;;;;;4.70;2.67;;;13.50;46.90;;;;;;2523076;54;20959;-72
2023/04/10 00:19:35;;;;;;;4.55;2.67;;;13.50;47.00;;;;;;2310876;55;20962;-70
2023/04/10 00:22:01;;;;;;;4.30;2.60;;;13.40;46.90;;;;;;2310933;55;20962;-70
2023/04/10 00:24:31;;;;;;;4.80;2.90;;;13.40;46.90;;;;;;2550325;54;21510;-71
2023/04/10 00:26:57;;;;;;;5.22;2.37;;;13.40;46.90;;;;;;2311249;55;20998;-71
2023/04/10 00:29:24;;;;;;;4.35;2.35;;;13.40;46.90;;;;;;2310463;55;21009;-70
2023/04/10 00:31:50;;;;;;;4.07;2.33;;;13.40;47.00;;;;;;2310728;55;20942;-70
2023/04/10 00:34:16;;;;;;;4.57;2.10;;;13.30;46.90;;;;;;2310682;55;21065;-70
2023/04/10 00:36:44;;;;;;;4.30;2.60;;;13.30;46.90;;;;;;2550909;54;20959;-70
2023/04/10 00:39:16;;;;;;;4.30;2.50;;;13.30;47.00;;;;;;2298799;55;21065;-70
2023/04/10 00:41:45;;;;;;;5.22;2.87;;;13.30;46.80;;;;;;2305026;55;20943;-70
2023/04/10 00:44:15;;;;;;;4.40;2.40;;;13.20;46.90;;;;;;2549249;54;20927;-70
2023/04/10 00:46:41;;;;;;;4.28;2.58;;;13.20;46.90;;;;;;2313110;55;20923;-70
2023/04/10 00:49:08;;;;;;;4.87;2.70;;;13.20;46.90;;;;;;2549939;54;20950;-71
2023/04/10 00:51:35;;;;;;;4.03;2.30;;;13.20;46.90;;;;;;2550054;54;20893;-71
2023/04/10 00:54:02;;;;;;;4.12;2.40;;;13.00;46.80;;;;;;2549858;54;21310;-70
2023/04/10 00:56:30;;;;;;;4.35;2.67;;;13.10;46.90;;;;;;2310497;55;20958;-70
2023/04/10 00:58:56;;;;;;;4.47;2.40;;;13.10;46.90;;;;;;2310315;55;21069;-70
2023/04/10 01:01:22;;;;;;;4.28;2.42;;;13.10;46.90;;;;;;2549529;54;20955;-70
2023/04/10 01:03:49;;;;;;;4.35;2.40;;;13.00;46.80;;;;;;2310748;55;20900;-70
2023/04/10 01:07:49;;;;;;;4.85;2.50;;;13.00;46.80;;;;;;2541637;54;21010;-69
2023/04/10 01:11:05;;;;;;;3.87;2.12;;;13.00;46.80;;;;;;2520790;54;20938;-70
2023/04/10 01:13:49;;;;;;;3.87;2.17;;;13.00;46.30;;;;;;2538805;54;21720;-69
2023/04/10 01:16:24;;;;;;;4.65;2.25;;;12.90;46.70;;;;;;2532835;54;21011;-69
2023/04/10 01:18:54;;;;;;;3.40;1.77;;;12.90;46.80;;;;;;2292167;55;22102;-70
2023/04/10 01:21:23;;;;;;;3.50;1.77;;;12.90;46.80;;;;;;2498835;54;20950;-70
2023/04/10 01:24:17;;;;;;;3.08;1.70;;;12.90;46.80;;;;;;2289068;55;21735;-70
2023/04/10 01:29:45;;;;;;;3.28;1.75;;;12.80;46.50;;;;;;2285769;55;20935;-70
2023/04/10 01:32:12;;;;;;;2.80;1.52;;;12.80;46.40;;;;;;2499037;54;22049;-69
2023/04/10 01:34:44;;;;;;;3.10;1.75;;;12.80;46.90;;;;;;2290029;55;21059;-70
2023/04/10 01:37:37;;;;;;;3.72;2.10;;;12.80;46.80;;;;;;2287098;55;20959;-70
2023/04/10 01:40:05;;;;;;;;;;;12.80;46.80;;;;;;2284709;55;21475;-69
2023/04/10 01:42:34;;;;;;;3.42;1.58;;;12.80;46.50;;;;;;2521206;54;20129;-70
2023/04/10 01:45:01;;;;;;;3.22;1.75;;;12.70;47.00;;;;;;2533207;54;20945;-70
2023/04/10 01:47:27;;;;;;;3.65;1.83;;;12.70;47.00;;;;;;2282822;55;21000;-70
2023/04/10 01:49:54;;;;;;;3.60;1.90;;;12.70;47.00;;;;;;2515735;54;20946;-70
2023/04/10 01:52:21;;;;;;;4.03;2.10;;;12.70;47.00;;;;;;2297038;55;20959;-70
2023/04/10 01:54:48;;;;;;;4.10;1.92;;;12.60;46.90;;;;;;2294314;55;21066;-70
2023/04/10 01:57:17;;;;;;;4.00;1.90;;;12.60;46.90;;;;;;2293622;55;20935;-70
2023/04/10 01:59:43;;;;;;;3.28;1.70;;;12.60;46.90;;;;;;2533050;54;20927;-70
2023/04/10 02:02:10;;;;;;;3.62;1.83;;;12.60;46.90;;;;;;2539514;54;20947;-70
2023/04/10 02:04:37;;;;;;;4.03;2.22;;;12.50;46.90;;;;;;2301843;55;21058;-70
2023/04/10 02:07:15;;;;;;;3.70;1.90;;;12.50;46.90;;;;;;2299381;55;21531;-70
2023/04/10 02:09:53;;;;;;;3.78;2.12;;;12.50;46.90;;;;;;2297865;55;20970;-69
2023/04/10 02:12:31;;;;;;;3.60;1.90;;;12.50;46.70;;;;;;2535209;54;20935;-70
2023/04/10 02:15:08;;;;;;;3.92;2.12;;;12.40;46.60;;;;;;2524814;54;21486;-70
2023/04/10 02:17:35;;;;;;;4.05;2.20;;;12.40;46.80;;;;;;2287635;55;21105;-70
2023/04/10 02:20:08;;;;;;;4.05;2.05;;;12.30;46.80;;;;;;2539154;54;21807;-69
2023/04/10 02:22:35;;;;;;;3.17;1.73;;;12.30;46.80;;;;;;2297727;55;21015;-70
2023/04/10 02:25:03;;;;;;;4.07;2.25;;;12.30;46.80;;;;;;2288662;55;21001;-69
2023/04/10 02:27:36;;;;;;;4.28;2.05;;;12.30;46.80;;;;;;2529238;54;21337;-70
2023/04/10 02:30:03;;;;;;;3.42;1.83;;;12.20;46.70;;;;;;2529497;54;20930;-69
2023/04/10 02:32:32;;;;;;;3.78;1.87;;;12.20;46.80;;;;;;2292177;55;20967;-71
2023/04/10 02:34:59;;;;;;;3.17;1.60;;;12.10;46.80;;;;;;2489822;54;20979;-70
2023/04/10 02:37:25;;;;;;;3.87;2.10;;;12.10;46.90;;;;;;2523579;54;20939;-70
2023/04/10 02:39:53;;;;;;;3.90;2.10;;;12.10;46.90;;;;;;2292022;55;22240;-69
2023/04/10 02:42:23;;;;;;;3.37;1.73;;;12.00;46.80;;;;;;2286114;55;21030;-70
2023/04/10 02:44:49;;;;;;;3.37;2.00;;;12.00;46.80;;;;;;2517457;54;20935;-70
2023/04/10 02:47:17;;;;;;;3.25;1.67;;;12.00;46.90;;;;;;2525475;54;21254;-70
2023/04/10 02:49:47;;;;;;;4.10;1.85;;;11.90;46.90;;;;;;2291203;55;21129;-70
2023/04/10 02:52:13;;;;;;;3.70;2.03;;;12.00;47.00;;;;;;2501864;54;21002;-70
2023/04/10 02:54:42;;;;;;;3.20;1.60;;;11.90;47.00;;;;;;2527668;54;21748;-70
2023/04/10 02:57:08;;;;;;;3.22;1.62;;;11.90;46.90;;;;;;2289122;55;20999;-70
2023/04/10 02:59:35;;;;;;;3.35;1.70;;;11.90;47.00;;;;;;2294837;55;21011;-70
2023/04/10 03:02:01;;;;;;;4.10;2.05;;;11.90;47.00;;;;;;2540548;54;21894;-69
2023/04/10 03:04:30;;;;;;;4.68;2.33;;;11.90;47.10;;;;;;2299286;55;20939;-71
2023/04/10 03:06:58;;;;;;;3.42;1.87;;;11.80;47.00;;;;;;2298794;55;20942;-70
2023/04/10 03:09:24;;;;;;;4.43;2.20;;;11.80;47.10;;;;;;2535800;54;20986;-69
2023/04/10 03:11:50;;;;;;;4.45;2.00;;;11.80;47.10;;;;;;2300498;55;21495;-70
2023/04/10 03:14:21;;;;;;;3.60;1.92;;;11.80;47.10;;;;;;2511892;54;21016;-70
2023/04/10 03:16:49;;;;;;;3.60;1.90;;;11.80;47.10;;;;;;2301792;55;21002;-70
2023/04/10 03:19:15;;;;;;;3.03;1.67;;;11.80;47.20;;;;;;2538993;54;21881;-70
2023/04/10 03:21:41;;;;;;;3.97;1.92;;;11.80;47.30;;;;;;2297714;55;21962;-69
2023/04/10 03:24:10;;;;;;;3.30;1.70;;;11.80;47.30;;;;;;2536000;54;20915;-70
2023/04/10 03:26:36;;;;;;;3.90;1.90;;;11.80;47.30;;;;;;2539975;54;20998;-70
2023/04/10 03:29:03;;;;;;;3.53;1.95;;;11.80;47.30;;;;;;2538993;54;20975;-70
2023/04/10 03:31:32;;;;;;;3.72;1.92;;;11.80;47.30;;;;;;2301134;55;21051;-70
2023/04/10 03:33:58;;;;;;;3.80;1.90;;;11.80;47.20;;;;;;2302980;55;21018;-70
2023/04/10 03:36:26;;;;;;;3.58;1.67;;;11.90;47.30;;;;;;2301961;55;20917;-70
2023/04/10 03:38:52;;;;;;;3.55;1.98;;;11.90;47.30;;;;;;2537415;54;21858;-70
2023/04/10 03:41:18;;;;;;;4.25;2.12;;;11.90;47.30;;;;;;2298240;55;20931;-70
2023/04/10 03:43:45;;;;;;;3.50;1.80;;;11.90;47.30;;;;;;2295551;55;21023;-70
2023/04/10 03:46:11;;;;;;;3.50;1.67;;;11.80;47.20;;;;;;2295923;55;21745;-69
2023/04/10 03:48:39;;;;;;;3.28;1.70;;;11.80;47.20;;;;;;2534268;54;21009;-70
2023/04/10 03:51:07;;;;;;;3.53;1.90;;;11.80;47.20;;;;;;2535013;54;20963;-70
2023/04/10 03:53:34;;;;;;;3.00;1.55;;;11.80;47.20;;;;;;2299475;55;21102;-69
2023/04/10 03:56:02;;;;;;;4.53;2.03;;;11.80;47.20;;;;;;2294469;55;22405;-69
2023/04/10 03:58:28;;;;;;;3.45;1.75;;;11.80;47.20;;;;;;2295387;55;21094;-70
2023/04/10 04:00:55;;;;;;;2.75;1.50;;;11.80;47.30;;;;;;2284298;55;20946;-70
2023/04/10 04:03:24;;;;;;;3.33;1.48;;;11.80;47.30;;;;;;2286485;55;21563;-70
2023/04/10 04:05:51;;;;;;;2.62;1.30;;;11.80;47.30;;;;;;2536644;54;21694;-69
2023/04/10 04:08:17;;;;;;;2.72;1.35;;;11.70;47.20;;;;;;2533405;54;20971;-70
2023/04/10 04:10:45;;;;;;;3.12;1.40;;;11.70;47.30;;;;;;2534330;54;20895;-69
2023/04/10 04:13:14;;;;;;;2.75;1.33;;;11.70;47.30;;;;;;2297367;55;20931;-69
2023/04/10 04:15:41;;;;;;;2.75;1.30;;;11.70;47.20;;;;;;2296101;55;21932;-69
2023/04/10 04:18:11;;;;;;;2.65;1.15;;;11.60;47.10;;;;;;2527898;54;20966;-70
2023/04/10 04:20:37;;;;;;;3.50;1.55;;;11.50;47.10;;;;;;2268768;55;21045;-70
2023/04/10 04:23:04;;;;;;;2.97;1.48;;;11.50;47.10;;;;;;2286384;55;21433;-69
2023/04/10 04:25:30;;;;;;;3.30;1.70;;;11.50;47.10;;;;;;2502230;54;21816;-70
2023/04/10 04:27:57;;;;;;;3.20;1.60;;;11.40;47.10;;;;;;2496648;54;20976;-70
2023/04/10 04:30:24;;;;;;;3.03;1.48;;;11.40;47.10;;;;;;2513480;54;21898;-70
2023/04/10 04:32:50;;;;;;;3.03;1.52;;;11.30;47.10;;;;;;2277833;55;21001;-70
2023/04/10 04:35:17;;;;;;;3.30;1.67;;;11.30;47.10;;;;;;2274928;55;21124;-69
2023/04/10 04:37:44;;;;;;;3.62;1.80;;;11.30;47.10;;;;;;2517033;54;20963;-70
2023/04/10 04:40:14;;;;;;;2.97;1.50;;;11.20;47.10;;;;;;2292491;55;21752;-69
2023/04/10 04:42:43;;;;;;;3.50;1.70;;;11.20;47.20;;;;;;2294521;55;21447;-70
2023/04/10 04:45:13;;;;;;;3.92;2.03;;;11.00;47.00;;;;;;2508010;54;21021;-70
2023/04/10 04:47:39;;;;;;;3.55;1.92;;;11.00;47.10;;;;;;2531642;54;20946;-70
2023/04/10 04:50:07;;;;;;;2.80;1.40;;;11.00;47.10;;;;;;2279078;55;21005;-70
2023/04/10 04:52:34;;;;;;;3.45;1.77;;;10.90;47.20;;;;;;2521831;54;21381;-70
2023/04/10 04:55:04;;;;;;;3.17;1.65;;;10.80;47.10;;;;;;2534592;54;22601;-69
2023/04/10 04:57:30;;;;;;;3.22;1.50;;;10.80;47.10;;;;;;2298148;55;21006;-69
2023/04/10 04:59:57;;;;;;;3.62;1.62;;;10.70;47.10;;;;;;2537285;54;20934;-70
2023/04/10 05:02:23;;;;;;;5.00;1.70;;;10.70;47.20;;;;;;2300726;55;20952;-70
2023/04/10 05:04:50;;;;;;;3.72;1.75;;;10.60;47.30;;;;;;2512968;54;20955;-70
2023/04/10 05:07:16;;;;;;;3.22;1.73;;;10.60;47.30;;;;;;2536362;54;21399;-70
2023/04/10 05:09:43;;;;;;;3.55;1.80;;;10.50;47.30;;;;;;2530203;54;20959;-69
2023/04/10 05:12:09;;;;;;;3.40;1.65;;;10.40;47.30;;;;;;2530812;54;20943;-70
2023/04/10 05:14:35;;;;;;;4.43;2.28;;;10.40;47.40;;;;;;2296010;55;21558;-70
2023/04/10 05:17:02;;;;;;;3.22;1.80;;;10.30;47.40;;;;;;2296464;55;20931;-69
2023/04/10 05:19:30;;;;;;;4.55;2.60;;;10.30;47.50;;;;;;2293523;55;21074;-69
2023/04/10 05:21:56;;;;;;;4.55;2.47;;;10.30;47.60;;;;;;2522262;54;20931;-69
2023/04/10 05:24:26;;;;;;;5.07;2.42;;;10.20;47.60;;;;;;2287136;55;21010;-69
2023/04/10 05:26:52;;;;;;;5.15;2.85;;;10.20;47.70;;;;;;2295732;55;21012;-69
2023/04/10 05:29:19;;;;;;;4.53;2.40;;;10.10;47.70;;;;;;2534971;54;21003;-69
2023/04/10 05:31:45;;;;;;;4.50;2.50;;;10.10;47.80;;;;;;2251416;55;3298242;-70
2023/04/10 05:34:13;;;;;;;4.28;2.28;;;10.00;47.80;;;;;;2509155;54;21727;-69
2023/04/10 05:36:44;;;;;;;4.45;2.35;;;10.00;47.80;;;;;;2512512;54;20939;-70
2023/04/10 05:39:10;;;;;;;4.97;2.50;;;10.00;47.90;;;;;;2275873;55;21026;-69
2023/04/10 05:41:39;;;;;;;4.43;2.33;;;10.00;48.00;;;;;;2247517;56;21192;-69
2023/04/10 05:44:05;;;;;;;3.50;1.80;;;10.00;48.10;;;;;;2509478;54;20994;-69
2023/04/10 05:46:35;;;;;;;4.65;2.22;;;9.90;49.00;;;;;;2266450;55;22596;-69
2023/04/10 05:49:03;;;;;;;4.22;2.25;;;9.90;49.00;;;;;;2496967;54;21807;-69
2023/04/10 05:51:30;;;;;;;4.47;2.17;;;9.90;49.00;;;;;;2256768;55;21041;-69
2023/04/10 05:53:58;;;;;;;4.22;2.28;;;9.90;49.10;;;;;;2260850;55;20903;-69
2023/04/10 05:56:25;;;;;;;3.85;1.90;;;9.90;49.30;;;;;;2477300;54;21038;-69
2023/04/10 05:58:51;;;;;;;4.45;2.22;;;9.90;49.30;;;;;;2451212;54;21949;-69
2023/04/10 06:01:18;;;;;;;3.97;2.17;;;9.90;49.30;;;;;;2206779;55;21791;-69
2023/04/10 06:03:46;;;;;;;4.62;2.55;;;9.90;49.40;;;;;;2190795;55;22537;-69
2023/04/10 06:06:17;;;;;;;4.97;2.62;;;9.90;49.50;;;;;;2413498;54;21935;-68
2023/04/10 06:08:46;;;;;;;4.60;2.47;;;9.90;49.60;;;;;;2206377;55;21899;-69
2023/04/10 06:11:20;;;;;;;4.80;2.58;;;9.90;49.60;;;;;;2421077;54;21036;-69
2023/04/10 06:13:47;;;;;;;;;;;9.90;49.80;;;;;;2440358;54;20975;-69
2023/04/10 06:16:17;;;;;;;4.62;2.28;;;9.90;49.60;;;;;;2438715;54;20052;-68
2023/04/10 06:18:49;;;;;;;4.00;2.30;;;10.00;49.00;;;;;;2208250;55;21687;-69
2023/04/10 06:21:16;;;;;;;5.70;2.28;;;9.90;49.80;;;;;;2447865;54;20998;-69
2023/04/10 06:23:46;;;;;;;4.45;2.53;;;9.90;49.90;;;;;;2244157;55;21825;-69
2023/04/10 06:26:14;;;;;;;4.97;2.47;;;9.90;50.00;;;;;;2247184;55;20954;-69
2023/04/10 06:28:41;;;;;;;4.30;2.00;;;9.90;50.00;;;;;;2266396;55;21530;-70
2023/04/10 06:31:08;;;;;;;4.20;2.35;;;9.90;50.00;;;;;;2503946;54;21026;-70
2023/04/10 06:33:37;;;;;;;4.07;2.20;;;9.90;50.10;;;;;;2522846;54;21631;-69
2023/04/10 06:36:03;;;;;;;5.12;2.37;;;9.90;50.10;;;;;;2287328;55;20935;-69
2023/04/10 06:38:36;;;;;;;4.25;2.40;;;9.90;50.20;;;;;;2531183;54;21940;-70
2023/04/10 06:41:05;;;;;;;;;;;9.90;50.20;;;;;;2302349;55;21026;-69
2023/04/10 06:43:34;;;;;;;4.22;2.35;;;10.00;49.20;;;;;;2302615;55;20071;-69
2023/04/10 06:46:03;;;;;;;4.15;2.35;;;10.00;49.40;;;;;;2301568;55;20934;-70
2023/04/10 06:48:29;;;;;;;5.20;2.97;;;10.00;49.50;;;;;;2302908;55;20947;-70
2023/04/10 06:50:55;;;;;;;4.85;3.00;;;10.00;49.60;;;;;;2302069;55;21480;-70
2023/04/10 06:53:22;;;;;;;4.85;2.58;;;10.00;49.80;;;;;;2277387;55;22149;-69
2023/04/10 06:55:49;;;;;;;4.03;2.15;;;10.10;50.10;;;;;;2534685;54;20979;-70
2023/04/10 06:58:19;;;;;;;5.07;2.72;;;10.10;50.20;;;;;;2533830;54;21023;-71
2023/04/10 07:00:46;;;;;;;4.03;2.22;;;10.20;50.40;;;;;;2515667;54;21953;-71
2023/04/10 07:03:13;;;;;;;3.70;1.95;;;10.30;50.50;;;;;;2521179;54;21740;-70
2023/04/10 07:05:39;;;;;;;4.10;2.37;;;10.40;50.70;;;;;;2534361;54;21837;-70
2023/04/10 07:08:07;;;;;;;4.10;2.45;;;10.50;50.90;;;;;;2534125;54;21872;-70
2023/04/10 07:10:35;;;;;;;4.37;2.30;;;10.60;51.10;;;;;;2295463;55;21066;-70
2023/04/10 07:13:04;;;;;;;4.68;2.60;;;10.70;51.30;;;;;;2294713;55;20987;-70
2023/04/10 07:15:30;;;;;;;4.55;2.60;;;10.80;51.30;;;;;;2535447;54;21005;-72
2023/04/10 07:17:56;;;;;;;5.05;2.75;;;11.00;51.60;;;;;;2299277;55;20942;-70
2023/04/10 07:20:27;;;;;;;4.22;2.60;;;11.10;51.60;;;;;;2533133;54;20951;-70
2023/04/10 07:22:55;;;;;;;4.47;2.25;;;11.20;51.80;;;;;;2260452;55;21810;-70
2023/04/10 07:25:21;;;;;;;4.50;2.65;;;11.40;52.10;;;;;;2502424;54;21710;-71
2023/04/10 07:27:49;;;;;;;4.85;3.03;;;11.50;52.10;;;;;;2509904;54;21072;-71
2023/04/10 07:30:15;;;;;;;5.07;2.92;;;11.70;52.40;;;;;;2274750;55;21101;-75
2023/04/10 07:32:44;;;;;;;5.37;3.40;;;11.80;52.60;;;;;;2267568;55;20951;-75
2023/04/10 07:35:10;;;;;;;5.07;3.22;;;12.00;52.80;;;;;;2473635;54;21502;-75
2023/04/10 07:37:38;;;;;;;4.50;2.60;;;12.30;53.70;;;;;;2266873;55;21066;-73
2023/04/10 07:40:06;;;;;;;4.45;2.55;;;12.50;53.20;;;;;;2500342;54;21630;-75
2023/04/10 07:42:36;;;;;;;4.78;3.00;;;12.70;53.20;;;;;;2507676;54;22608;-74
2023/04/10 07:45:05;;;;;;;5.53;3.25;;;12.90;53.00;;;;;;2267111;55;21663;-74
2023/04/10 07:47:31;;;;;;;4.72;2.37;;;13.10;52.90;;;;;;2488914;54;21529;-75
2023/04/10 07:49:59;;;;;;;3.62;2.12;;;13.20;52.70;;;;;;2252675;55;21007;-74
2023/04/10 07:52:26;;;;;;;4.40;2.25;;;13.40;52.50;;;;;;2296984;55;21460;-75
2023/04/10 07:54:52;;;;;;;4.22;2.33;;;13.60;52.50;;;;;;2535233;54;20951;-75
2023/04/10 07:57:20;;;;;;;4.37;2.58;;;13.70;52.40;;;;;;2293971;55;20942;-75
2023/04/10 07:59:46;;;;;;;5.45;2.90;;;13.80;52.40;;;;;;2273742;56;21879;-75
2023/04/10 08:02:15;;;;;;;5.05;3.03;;;14.00;52.60;;;;;;2530369;54;22145;-75
2023/04/10 08:04:43;;;;;;;4.28;2.67;;;14.10;52.60;;;;;;2293377;55;21034;-75
2023/04/10 08:07:09;;;;;;;4.80;2.87;;;14.30;52.70;;;;;;2531786;54;21002;-75
2023/04/10 08:09:36;;;;;;;4.25;2.53;;;14.40;52.70;;;;;;2294094;55;20975;-74
2023/04/10 08:12:03;;;;;;;4.75;2.50;;;14.60;52.60;;;;;;2532138;54;21499;-74
2023/04/10 08:14:30;;;;;;;4.12;2.50;;;14.70;52.50;;;;;;2504754;54;20961;-74
2023/04/10 08:16:59;;;;;;;4.30;2.37;;;14.90;52.50;;;;;;2527872;54;20963;-74
2023/04/10 08:19:25;;;;;;;4.03;2.20;;;15.00;52.10;;;;;;2289398;55;21011;-75
2023/04/10 08:21:51;;;;;;;3.90;2.33;;;15.20;52.20;;;;;;2285167;55;21054;-75
2023/04/10 08:24:21;;;;;;;4.37;2.50;;;15.30;52.10;;;;;;2278529;55;20987;-73
2023/04/10 08:26:51;;;;;;;3.50;1.90;;;15.40;52.10;;;;;;2471956;54;22080;-74
2023/04/10 08:29:17;;;;;;;3.33;1.73;;;15.60;52.00;;;;;;2480315;54;20934;-74
2023/04/10 08:31:47;;;;;;;3.62;1.98;;;15.80;52.10;;;;;;2475603;54;21011;-74
2023/04/10 08:34:15;;;;;;;4.20;2.35;;;15.90;51.70;;;;;;2468213;54;21558;-74
2023/04/10 08:36:41;;;;;;;4.03;2.00;;;16.00;51.40;;;;;;2231283;55;21078;-74
2023/04/10 08:39:17;;;;;;;2.90;1.75;;;16.10;51.30;;;;;;2201636;55;21864;-75
2023/04/10 08:41:51;;;;;;;3.47;1.85;;;16.20;51.10;;;;;;2434616;54;21393;-74
2023/04/10 08:44:18;;;;;;;3.63;2.07;;;16.30;50.90;;;;;;2448194;54;21768;-75
2023/04/10 08:46:49;;;;;;;3.58;1.90;;;16.40;51.10;;;;;;2412586;54;22222;-74
2023/04/10 08:50:02;;;;;;;3.72;1.85;;;16.60;50.80;;;;;;2212016;55;21960;-74
2023/04/10 08:52:31;;;;;;;4.43;1.42;;;16.70;50.20;;;;;;2204051;55;22054;-73
2023/04/10 08:55:01;;;;;;;3.33;1.92;;;16.80;51.00;;;;;;2190646;56;21384;-74
2023/04/10 08:57:33;;;;;;;3.53;2.00;;;16.90;50.70;;;;;;2228098;54;21756;-74
2023/04/10 09:00:10;;;;;;;2.85;1.50;;;17.10;50.60;;;;;;2241434;55;21314;-73
2023/04/10 09:02:43;;;;;;;3.80;2.20;;;17.20;50.50;;;;;;2483223;54;20970;-74
2023/04/10 09:05:11;;;;;;;3.75;2.17;;;17.30;50.60;;;;;;2469743;54;20971;-73
2023/04/10 09:07:39;;;;;;;3.78;2.20;;;17.40;50.60;;;;;;2486694;54;20995;-73
2023/04/10 09:10:09;;;;;;;3.53;2.00;;;17.50;50.40;;;;;;2495461;54;21416;-74
2023/04/10 09:12:50;;;;;;;3.72;1.85;;;17.60;50.00;;;;;;2270198;55;20943;-74
2023/04/10 09:15:17;;;;;;;3.05;1.50;;;17.70;49.70;;;;;;2264510;55;20935;-73
2023/04/10 09:18:01;;;;;;;3.60;1.73;;;17.90;50.00;;;;;;2510530;54;21799;-75
2023/04/10 09:20:30;;;;;;;2.97;1.67;;;18.00;49.10;;;;;;2268629;55;21019;-74
2023/04/10 09:23:33;;;;;;;3.53;1.67;;;18.10;49.70;;;;;;2458310;54;21759;-74
2023/04/10 09:32:55;;;;;;;3.70;1.87;;;18.20;49.20;;;;;;2461179;54;20990;-73
2023/04/10 09:35:22;;;;;;;3.30;1.65;;;18.30;49.60;;;;;;2249822;55;20955;-75
2023/04/10 09:37:54;;;;;;;4.10;2.22;;;18.70;50.40;;;;;;2249782;55;21436;-74
2023/04/10 09:40:24;;;;;;;3.67;2.00;;;18.80;49.90;;;;;;2223808;55;22279;-73
2023/04/10 09:42:55;;;;;;;3.08;1.73;;;18.90;50.00;;;;;;2248540;55;20971;-74
2023/04/10 09:45:21;;;;;;;3.58;1.80;;;19.00;49.70;;;;;;2488390;54;22424;-75
2023/04/10 09:49:43;;;;;;;3.50;1.85;;;19.10;49.60;;;;;;2492068;54;21457;-75
2023/04/10 09:52:29;;;;;;;4.10;2.20;;;19.30;48.60;;;;;;2271888;55;21021;-74
2023/04/10 09:55:00;;;;;;;4.87;1.90;;;19.40;48.10;;;;;;2497975;54;21049;-76
2023/04/10 09:57:31;;;;;;;3.70;2.10;;;19.40;48.80;;;;;;2516386;54;21453;-75
2023/04/10 10:00:00;;;;;;;3.15;1.80;;;19.50;48.80;;;;;;2526014;54;21041;-73
2023/04/10 10:02:35;;;;;;;2.67;1.40;;;19.60;48.80;;;;;;2507794;54;21469;-76
2023/04/10 10:05:04;;;;;;;3.53;1.92;;;19.60;48.80;;;;;;2287399;55;20998;-78
2023/04/10 10:07:30;;;;;;;3.65;1.80;;;19.70;48.60;;;;;;2520203;54;21228;-78
2023/04/10 10:10:00;;;;;;;2.97;1.60;;;19.70;48.50;;;;;;2528491;54;21728;-75
2023/04/10 10:12:50;;;;;;;2.78;1.50;;;19.80;48.20;;;;;;2290393;55;21579;-76
2023/04/10 10:15:40;;;;;;;3.08;1.80;;;19.80;47.30;;;;;;2515847;54;22131;-77
2023/04/10 10:21:14;;;;;;;2.92;1.50;;;19.90;48.10;;;;;;2274265;55;21006;-79
2023/04/10 10:23:41;;;;;;;2.53;1.27;;;20.20;48.10;;;;;;2295322;55;21010;-77
2023/04/10 10:26:08;;;;;;;3.20;1.55;;;20.20;48.70;;;;;;2299664;55;22161;-75
2023/04/10 10:28:35;;;;;;;2.92;1.50;;;20.30;48.40;;;;;;2537754;54;20951;-75
2023/04/10 10:31:04;;;;;;;2.97;1.40;;;20.40;48.20;;;;;;2541380;54;20986;-74
2023/04/10 10:33:33;;;;;;;2.92;1.60;;;20.50;48.10;;;;;;2543324;54;20923;-76
2023/04/10 10:35:59;;;;;;;3.00;1.60;;;20.60;48.20;;;;;;2545269;54;20919;-76
2023/04/10 10:38:27;;;;;;;2.70;1.40;;;20.60;48.10;;;;;;2306377;55;21327;-80
2023/04/10 10:41:12;;;;;;;3.47;1.80;;;20.70;48.00;;;;;;2306748;55;21026;-76
2023/04/10 10:43:54;;;;;;;3.53;1.60;;;20.80;47.30;;;;;;2307516;55;21388;-76
2023/04/10 10:47:18;;;;;;;2.55;1.30;;;20.90;47.40;;;;;;2548206;54;20994;-74
2023/04/10 10:50:00;;;;;;;;;;;20.90;47.40;;;;;;2315352;55;21022;-80
2023/04/10 10:52:48;;;;;;;2.67;1.20;;;21.10;47.80;;;;;;2551477;54;20448;-76
2023/04/10 10:55:49;;;;;;;2.40;1.10;;;21.20;47.40;;;;;;2311618;55;21000;-78
2023/04/10 10:58:18;;;;;;;2.87;1.40;;;21.30;46.60;;;;;;2311626;55;21499;-73
2023/04/10 11:01:21;;;;;;;2.42;1.20;;;21.40;47.70;;;;;;2550576;54;20918;-74
2023/04/10 11:03:47;;;;;;;3.00;1.33;;;21.40;46.20;;;;;;2312020;55;21002;-72
2023/04/10 11:06:24;;;;;;;3.47;1.80;;;21.50;47.30;;;;;;2549769;54;20939;-75
2023/04/10 11:08:53;;;;;;;3.28;1.73;;;21.50;46.60;;;;;;2550349;54;20990;-79
2023/04/10 11:11:27;;;;;;;2.78;1.40;;;21.60;46.90;;;;;;2310663;55;21247;-73
2023/04/10 11:14:16;;;;;;;2.92;1.52;;;21.70;46.60;;;;;;2311370;55;20927;-75
2023/04/10 11:16:44;;;;;;;2.90;1.48;;;21.80;46.30;;;;;;2550980;54;20915;-74
2023/04/10 11:19:13;;;;;;;3.50;1.80;;;21.90;46.90;;;;;;2550717;54;20900;-73
2023/04/10 11:22:03;;;;;;;3.00;1.70;;;21.90;46.80;;;;;;2551363;54;21062;-76
2023/04/10 11:28:02;;;;;;;2.65;1.50;;;22.10;45.80;;;;;;2550889;54;21077;-74
2023/04/10 11:30:34;;;;;;;2.37;1.20;;;22.30;46.30;;;;;;2312325;55;20943;-74
2023/04/10 11:33:01;;;;;;;2.92;1.55;;;22.40;46.80;;;;;;2298597;55;20981;-72
2023/04/10 11:35:30;;;;;;;2.60;1.27;;;22.40;46.40;;;;;;2541224;54;20923;-73
2023/04/10 11:38:13;;;;;;;2.83;1.23;;;22.50;46.30;;;;;;2310499;55;21515;-73
2023/04/10 11:40:56;;;;;;;2.55;1.27;;;22.60;45.10;;;;;;2550587;54;20943;-72
2023/04/10 11:43:23;;;;;;;2.62;1.25;;;22.60;44.80;;;;;;2310703;55;21034;-75
2023/04/10 11:45:59;;;;;;;2.75;1.48;;;22.70;45.70;;;;;;2549279;54;20986;-72
2023/04/10 11:48:27;;;;;;;2.42;1.27;;;22.70;44.80;;;;;;2549742;54;20927;-80
2023/04/10 11:50:53;;;;;;;2.80;1.37;;;22.70;45.20;;;;;;2311015;55;21018;-73
2023/04/10 11:53:20;;;;;;;2.60;1.35;;;22.70;45.70;;;;;;2549335;54;21015;-72
2023/04/10 11:55:47;;;;;;;3.00;1.45;;;22.80;45.10;;;;;;2311301;55;21412;-73
2023/04/10 11:58:25;;;;;;;2.53;1.30;;;22.80;45.00;;;;;;2549738;54;20958;-73
2023/04/10 12:01:13;;;;;;;2.30;1.20;;;22.80;44.70;;;;;;2311021;55;20938;-75
2023/04/10 12:03:40;;;;;;;2.40;1.08;;;22.90;44.20;;;;;;2550246;54;20926;-75
2023/04/10 12:06:10;;;;;;;2.72;1.33;;;23.00;45.30;;;;;;2549418;54;20934;-76
2023/04/10 12:08:41;;;;;;;2.97;1.40;;;23.00;44.80;;;;;;2311016;55;20994;-77
2023/04/10 12:11:09;;;;;;;4.93;1.30;;;23.10;44.60;;;;;;2522594;54;21002;-75
2023/04/10 12:13:35;;;;;;;2.47;1.23;;;23.20;44.20;;;;;;2311066;55;20951;-73
2023/04/10 12:16:06;;;;;;;2.50;1.20;;;23.20;44.50;;;;;;2550036;54;21384;-73
2023/04/10 12:18:37;;;;;;;2.72;1.27;;;23.30;43.70;;;;;;2549940;54;20987;-72
2023/04/10 12:21:03;;;;;;;2.37;1.20;;;23.30;43.80;;;;;;2549546;54;21010;-75
2023/04/10 12:23:30;;;;;;;2.67;1.27;;;23.30;43.80;;;;;;2524789;54;20942;-73
2023/04/10 12:26:57;;;;;;;2.45;1.20;;;23.40;43.50;;;;;;2297792;55;21417;-73
2023/04/10 12:29:26;;;;;;;2.05;1.00;;;23.50;42.20;;;;;;2549813;54;20986;-75
2023/04/10 12:31:53;;;;;;;2.60;1.25;;;23.50;43.60;;;;;;2297505;55;21022;-75
2023/04/10 12:34:20;;;;;;;2.25;1.15;;;23.60;43.80;;;;;;2525729;54;20954;-75
2023/04/10 12:36:51;;;;;;;2.10;1.20;;;23.60;43.50;;;;;;2302044;55;20990;-75
2023/04/10 12:39:23;;;;;;;2.10;1.10;;;23.60;43.00;;;;;;2539192;54;21019;-74
2023/04/10 12:41:51;;;;;;;2.62;1.23;;;23.70;42.90;;;;;;2311479;55;20951;-73
2023/04/10 12:44:20;;;;;;;2.78;1.45;;;23.70;43.30;;;;;;2549938;54;21737;-79
2023/04/10 12:46:46;;;;;;;2.28;1.35;;;23.80;43.40;;;;;;2302128;55;21010;-74
2023/04/10 12:49:15;;;;;;;2.90;1.50;;;23.80;43.10;;;;;;2536768;54;21026;-74
2023/04/10 12:51:51;;;;;;;2.97;1.58;;;23.80;42.50;;;;;;2310543;55;21412;-76
2023/04/10 12:54:35;;;;;;;3.58;1.50;;;23.90;42.20;;;;;;2548956;54;20946;-74
2023/04/10 12:57:02;;;;;;;2.80;1.50;;;23.90;41.40;;;;;;2310877;55;20975;-75
2023/04/10 12:59:35;;;;;;;2.80;1.58;;;23.90;42.10;;;;;;2549348;54;20998;-74
2023/04/10 13:02:01;;;;;;;3.65;1.50;;;23.90;42.20;;;;;;2310125;55;21031;-73
2023/04/10 13:04:30;;;;;;;3.00;1.48;;;23.90;42.30;;;;;;2549843;54;21363;-77
2023/04/10 13:06:56;;;;;;;2.17;1.10;;;23.90;42.20;;;;;;2310549;55;21483;-74
2023/04/10 13:09:23;;;;;;;2.90;1.30;;;23.90;42.10;;;;;;2290880;55;20965;-73
2023/04/10 13:11:50;;;;;;;2.50;1.30;;;23.90;42.10;;;;;;2310865;55;21039;-72
2023/04/10 13:14:17;;;;;;;2.30;1.12;;;23.90;42.80;;;;;;2310144;55;21047;-72
2023/04/10 13:16:43;;;;;;;4.18;1.60;;;23.90;42.20;;;;;;2310370;55;21045;-75
2023/04/10 13:19:10;;;;;;;2.80;1.45;;;24.00;42.20;;;;;;2549517;54;20979;-73
2023/04/10 13:21:36;;;;;;;2.92;1.42;;;24.00;42.00;;;;;;2310780;55;20939;-74
2023/04/10 13:24:02;;;;;;;2.53;1.27;;;24.00;41.90;;;;;;2310368;55;20943;-73